sensor_id;sensor_type;location;lat;lon;timestamp;P1;durP1;ratioP1;P2;durP2;ratioP2
58466;SDS011;44255;49.244;7.726;2023-04-03T03:32:47;7.53;;;2.95;;
58466;SDS011;44255;49.244;7.726;2023-04-03T03:35:12;3.83;;;2.78;;
58466;SDS011;44255;49.244;7.726;2023-04-03T03:40:02;5.38;;;2.50;;
58466;SDS011;44255;49.244;7.726;2023-04-03T03:44:53;3.25;;;2.22;;
58466;SDS011;44255;49.244;7.726;2023-04-03T03:49:44;3.90;;;2.15;;
58466;SDS011;44255;49.244;7.726;2023-04-03T03:52:09;3.38;;;2.40;;
58466;SDS011;44255;49.244;7.726;2023-04-03T03:54:37;4.05;;;2.45;;
58466;SDS011;44255;49.244;7.726;2023-04-03T03:57:03;3.80;;;2.47;;
58466;SDS011;44255;49.244;7.726;2023-04-03T04:01:53;5.43;;;2.30;;
58466;SDS011;44255;49.244;7.726;2023-04-03T04:06:44;3.13;;;2.00;;
58466;SDS011;44255;49.244;7.726;2023-04-03T04:11:35;10.52;;;2.25;;
58466;SDS011;44255;49.244;7.726;2023-04-03T04:16:25;3.75;;;2.05;;
58466;SDS011;44255;49.244;7.726;2023-04-03T04:18:51;2.83;;;2.08;;
58466;SDS011;44255;49.244;7.726;2023-04-03T04:23:41;4.75;;;2.20;;
58466;SDS011;44255;49.244;7.726;2023-04-03T04:28:32;2.85;;;2.00;;
58466;SDS011;44255;49.244;7.726;2023-04-03T04:33:22;3.72;;;2.45;;
58466;SDS011;44255;49.244;7.726;2023-04-03T04:38:13;5.30;;;2.05;;
58466;SDS011;44255;49.244;7.726;2023-04-03T04:43:04;2.58;;;1.90;;
58466;SDS011;44255;49.244;7.726;2023-04-03T04:47:55;2.45;;;1.90;;
58466;SDS011;44255;49.244;7.726;2023-04-03T04:52:46;3.90;;;1.85;;
58466;SDS011;44255;49.244;7.726;2023-04-03T04:57:36;3.47;;;2.20;;
58466;SDS011;44255;49.244;7.726;2023-04-03T05:00:03;2.40;;;2.00;;
58466;SDS011;44255;49.244;7.726;2023-04-03T05:02:29;3.67;;;2.10;;
58466;SDS011;44255;49.244;7.726;2023-04-03T05:07:20;4.43;;;2.05;;
58466;SDS011;44255;49.244;7.726;2023-04-03T05:12:11;3.13;;;1.90;;
58466;SDS011;44255;49.244;7.726;2023-04-03T05:17:01;5.32;;;2.42;;
58466;SDS011;44255;49.244;7.726;2023-04-03T05:21:52;4.88;;;2.42;;
58466;SDS011;44255;49.244;7.726;2023-04-03T05:26:43;3.05;;;2.10;;
58466;SDS011;44255;49.244;7.726;2023-04-03T05:31:34;3.22;;;2.30;;
58466;SDS011;44255;49.244;7.726;2023-04-03T05:36:24;9.70;;;3.50;;
58466;SDS011;44255;49.244;7.726;2023-04-03T05:41:15;5.30;;;2.97;;
58466;SDS011;44255;49.244;7.726;2023-04-03T05:46:13;5.25;;;2.72;;
58466;SDS011;44255;49.244;7.726;2023-04-03T05:48:40;4.72;;;3.03;;
58466;SDS011;44255;49.244;7.726;2023-04-03T05:53:33;6.82;;;3.88;;
58466;SDS011;44255;49.244;7.726;2023-04-03T05:56:02;8.30;;;3.55;;
58466;SDS011;44255;49.244;7.726;2023-04-03T05:58:28;6.18;;;3.92;;
58466;SDS011;44255;49.244;7.726;2023-04-03T06:00:53;5.47;;;3.90;;
58466;SDS011;44255;49.244;7.726;2023-04-03T06:05:43;6.38;;;4.07;;
58466;SDS011;44255;49.244;7.726;2023-04-03T06:08:09;6.32;;;3.65;;
58466;SDS011;44255;49.244;7.726;2023-04-03T06:13:00;8.23;;;3.63;;
58466;SDS011;44255;49.244;7.726;2023-04-03T06:15:26;7.65;;;3.95;;
58466;SDS011;44255;49.244;7.726;2023-04-03T06:17:51;4.70;;;3.25;;
58466;SDS011;44255;49.244;7.726;2023-04-03T06:20:16;5.90;;;3.47;;
58466;SDS011;44255;49.244;7.726;2023-04-03T06:22:42;5.05;;;3.17;;
58466;SDS011;44255;49.244;7.726;2023-04-03T06:25:07;7.65;;;2.80;;
58466;SDS011;44255;49.244;7.726;2023-04-03T06:27:34;4.20;;;2.63;;
58466;SDS011;44255;49.244;7.726;2023-04-03T06:29:59;3.97;;;2.50;;
58466;SDS011;44255;49.244;7.726;2023-04-03T06:34:50;5.18;;;2.50;;
58466;SDS011;44255;49.244;7.726;2023-04-03T06:37:16;3.58;;;2.40;;
58466;SDS011;44255;49.244;7.726;2023-04-03T06:39:43;3.47;;;2.00;;
58466;SDS011;44255;49.244;7.726;2023-04-03T06:42:08;6.77;;;2.67;;
58466;SDS011;44255;49.244;7.726;2023-04-03T06:44:33;6.00;;;3.30;;
58466;SDS011;44255;49.244;7.726;2023-04-03T06:46:59;6.00;;;3.10;;
58466;SDS011;44255;49.244;7.726;2023-04-03T06:49:25;3.80;;;2.58;;
58466;SDS011;44255;49.244;7.726;2023-04-03T06:51:50;3.42;;;2.05;;
58466;SDS011;44255;49.244;7.726;2023-04-03T06:56:41;6.25;;;2.03;;
58466;SDS011;44255;49.244;7.726;2023-04-03T06:59:07;4.97;;;2.30;;
58466;SDS011;44255;49.244;7.726;2023-04-03T07:01:33;3.63;;;2.67;;
58466;SDS011;44255;49.244;7.726;2023-04-03T07:03:58;4.07;;;2.57;;
58466;SDS011;44255;49.244;7.726;2023-04-03T07:06:24;4.15;;;2.70;;
58466;SDS011;44255;49.244;7.726;2023-04-03T07:08:51;6.97;;;2.90;;
58466;SDS011;44255;49.244;7.726;2023-04-03T07:11:17;3.63;;;2.50;;
58466;SDS011;44255;49.244;7.726;2023-04-03T07:13:42;3.77;;;2.33;;
58466;SDS011;44255;49.244;7.726;2023-04-03T07:16:08;4.67;;;2.90;;
58466;SDS011;44255;49.244;7.726;2023-04-03T07:20:59;5.13;;;2.53;;
58466;SDS011;44255;49.244;7.726;2023-04-03T07:23:25;4.75;;;3.40;;
58466;SDS011;44255;49.244;7.726;2023-04-03T07:25:50;3.90;;;2.20;;
58466;SDS011;44255;49.244;7.726;2023-04-03T07:28:17;6.82;;;3.10;;
58466;SDS011;44255;49.244;7.726;2023-04-03T07:30:44;4.00;;;2.75;;
58466;SDS011;44255;49.244;7.726;2023-04-03T07:33:23;6.22;;;2.35;;
58466;SDS011;44255;49.244;7.726;2023-04-03T07:35:49;3.70;;;2.30;;
58466;SDS011;44255;49.244;7.726;2023-04-03T07:38:14;6.95;;;2.80;;
58466;SDS011;44255;49.244;7.726;2023-04-03T07:40:41;3.15;;;2.47;;
58466;SDS011;44255;49.244;7.726;2023-04-03T07:43:10;5.32;;;2.40;;
58466;SDS011;44255;49.244;7.726;2023-04-03T07:45:36;3.60;;;2.60;;
58466;SDS011;44255;49.244;7.726;2023-04-03T07:48:03;4.93;;;2.22;;
58466;SDS011;44255;49.244;7.726;2023-04-03T07:50:28;4.05;;;1.98;;
58466;SDS011;44255;49.244;7.726;2023-04-03T07:52:55;4.80;;;2.45;;
58466;SDS011;44255;49.244;7.726;2023-04-03T07:55:22;4.53;;;2.78;;
58466;SDS011;44255;49.244;7.726;2023-04-03T07:57:47;8.00;;;2.38;;
58466;SDS011;44255;49.244;7.726;2023-04-03T08:00:13;4.87;;;1.97;;
58466;SDS011;44255;49.244;7.726;2023-04-03T08:02:39;5.68;;;2.92;;
58466;SDS011;44255;49.244;7.726;2023-04-03T08:05:04;7.33;;;2.73;;
58466;SDS011;44255;49.244;7.726;2023-04-03T08:07:30;4.07;;;2.40;;
58466;SDS011;44255;49.244;7.726;2023-04-03T08:09:55;5.13;;;2.77;;
58466;SDS011;44255;49.244;7.726;2023-04-03T08:12:20;4.65;;;2.63;;
58466;SDS011;44255;49.244;7.726;2023-04-03T08:14:46;3.78;;;2.80;;
58466;SDS011;44255;49.244;7.726;2023-04-03T08:17:11;4.17;;;2.03;;
58466;SDS011;44255;49.244;7.726;2023-04-03T08:19:39;5.73;;;2.97;;
58466;SDS011;44255;49.244;7.726;2023-04-03T08:22:05;4.88;;;2.35;;
58466;SDS011;44255;49.244;7.726;2023-04-03T08:24:31;6.25;;;2.50;;
58466;SDS011;44255;49.244;7.726;2023-04-03T08:26:58;3.45;;;1.95;;
58466;SDS011;44255;49.244;7.726;2023-04-03T08:29:24;5.13;;;2.30;;
58466;SDS011;44255;49.244;7.726;2023-04-03T08:34:15;6.30;;;2.40;;
58466;SDS011;44255;49.244;7.726;2023-04-03T08:36:41;5.13;;;2.50;;
58466;SDS011;44255;49.244;7.726;2023-04-03T08:39:06;4.55;;;2.22;;
58466;SDS011;44255;49.244;7.726;2023-04-03T08:41:33;2.35;;;1.80;;
58466;SDS011;44255;49.244;7.726;2023-04-03T08:49:47;5.32;;;2.45;;
58466;SDS011;44255;49.244;7.726;2023-04-03T08:54:51;4.55;;;2.60;;
58466;SDS011;44255;49.244;7.726;2023-04-03T08:57:20;2.85;;;1.98;;
58466;SDS011;44255;49.244;7.726;2023-04-03T08:59:52;3.70;;;2.45;;
58466;SDS011;44255;49.244;7.726;2023-04-03T09:02:23;5.53;;;2.47;;
58466;SDS011;44255;49.244;7.726;2023-04-03T09:04:49;5.55;;;2.78;;
58466;SDS011;44255;49.244;7.726;2023-04-03T09:07:16;4.53;;;2.65;;
58466;SDS011;44255;49.244;7.726;2023-04-03T09:09:50;8.15;;;3.53;;
58466;SDS011;44255;49.244;7.726;2023-04-03T09:12:27;5.85;;;2.67;;
58466;SDS011;44255;49.244;7.726;2023-04-03T09:20:14;6.38;;;2.10;;
58466;SDS011;44255;49.244;7.726;2023-04-03T09:22:48;4.72;;;2.13;;
58466;SDS011;44255;49.244;7.726;2023-04-03T09:25:29;4.78;;;2.20;;
58466;SDS011;44255;49.244;7.726;2023-04-03T09:27:59;4.85;;;2.17;;
58466;SDS011;44255;49.244;7.726;2023-04-03T09:30:25;3.80;;;1.98;;
58466;SDS011;44255;49.244;7.726;2023-04-03T09:32:52;3.40;;;1.77;;
58466;SDS011;44255;49.244;7.726;2023-04-03T09:35:25;5.43;;;2.10;;
58466;SDS011;44255;49.244;7.726;2023-04-03T09:38:21;6.20;;;2.50;;
58466;SDS011;44255;49.244;7.726;2023-04-03T09:45:42;4.80;;;1.90;;
58466;SDS011;44255;49.244;7.726;2023-04-03T09:50:41;2.85;;;1.85;;
58466;SDS011;44255;49.244;7.726;2023-04-03T09:53:42;3.97;;;1.90;;
58466;SDS011;44255;49.244;7.726;2023-04-03T09:58:40;4.75;;;2.10;;
58466;SDS011;44255;49.244;7.726;2023-04-03T10:01:31;3.92;;;2.00;;
58466;SDS011;44255;49.244;7.726;2023-04-03T10:04:06;4.43;;;2.35;;
58466;SDS011;44255;49.244;7.726;2023-04-03T10:06:33;5.65;;;2.20;;
58466;SDS011;44255;49.244;7.726;2023-04-03T10:09:02;6.47;;;2.30;;
58466;SDS011;44255;49.244;7.726;2023-04-03T10:11:30;3.53;;;2.22;;
58466;SDS011;44255;49.244;7.726;2023-04-03T10:13:57;5.10;;;1.77;;
58466;SDS011;44255;49.244;7.726;2023-04-03T10:16:34;8.80;;;2.33;;
58466;SDS011;44255;49.244;7.726;2023-04-03T10:27:51;5.43;;;2.72;;
58466;SDS011;44255;49.244;7.726;2023-04-03T10:39:11;6.03;;;2.60;;
58466;SDS011;44255;49.244;7.726;2023-04-03T10:41:56;3.70;;;2.28;;
58466;SDS011;44255;49.244;7.726;2023-04-03T10:44:42;5.13;;;2.50;;
58466;SDS011;44255;49.244;7.726;2023-04-03T10:50:00;4.88;;;2.47;;
58466;SDS011;44255;49.244;7.726;2023-04-03T10:52:53;2.75;;;2.03;;
58466;SDS011;44255;49.244;7.726;2023-04-03T10:57:50;6.77;;;2.10;;
58466;SDS011;44255;49.244;7.726;2023-04-03T11:00:23;3.72;;;2.00;;
58466;SDS011;44255;49.244;7.726;2023-04-03T11:02:56;2.78;;;1.88;;
58466;SDS011;44255;49.244;7.726;2023-04-03T11:10:59;3.78;;;1.88;;
58466;SDS011;44255;49.244;7.726;2023-04-03T11:16:00;3.03;;;1.90;;
58466;SDS011;44255;49.244;7.726;2023-04-03T11:18:32;3.63;;;1.50;;
58466;SDS011;44255;49.244;7.726;2023-04-03T11:21:03;2.10;;;1.30;;
58466;SDS011;44255;49.244;7.726;2023-04-03T11:23:36;2.42;;;1.40;;
58466;SDS011;44255;49.244;7.726;2023-04-03T11:26:09;3.47;;;1.63;;
58466;SDS011;44255;49.244;7.726;2023-04-03T11:28:37;3.10;;;1.50;;
58466;SDS011;44255;49.244;7.726;2023-04-03T11:34:08;4.15;;;1.85;;
58466;SDS011;44255;49.244;7.726;2023-04-03T11:36:52;3.70;;;1.92;;
58466;SDS011;44255;49.244;7.726;2023-04-03T11:44:51;3.45;;;1.63;;
58466;SDS011;44255;49.244;7.726;2023-04-03T11:50:37;3.63;;;1.58;;
58466;SDS011;44255;49.244;7.726;2023-04-03T11:58:15;3.15;;;1.30;;
58466;SDS011;44255;49.244;7.726;2023-04-03T12:06:42;1.55;;;1.38;;
58466;SDS011;44255;49.244;7.726;2023-04-03T12:08:44;3.53;;;1.80;;
58466;SDS011;44255;49.244;7.726;2023-04-03T12:16:30;2.88;;;1.50;;
58466;SDS011;44255;49.244;7.726;2023-04-03T12:19:00;3.25;;;1.50;;
58466;SDS011;44255;49.244;7.726;2023-04-03T12:26:31;2.72;;;1.45;;
58466;SDS011;44255;49.244;7.726;2023-04-03T12:29:17;3.38;;;1.55;;
58466;SDS011;44255;49.244;7.726;2023-04-03T12:31:59;3.38;;;1.75;;
58466;SDS011;44255;49.244;7.726;2023-04-03T12:45:24;4.20;;;1.70;;
58466;SDS011;44255;49.244;7.726;2023-04-03T12:47:52;2.80;;;1.40;;
58466;SDS011;44255;49.244;7.726;2023-04-03T12:50:28;3.33;;;1.60;;
58466;SDS011;44255;49.244;7.726;2023-04-03T12:52:59;3.05;;;1.30;;
58466;SDS011;44255;49.244;7.726;2023-04-03T12:55:29;3.03;;;1.70;;
58466;SDS011;44255;49.244;7.726;2023-04-03T12:57:54;2.17;;;1.30;;
58466;SDS011;44255;49.244;7.726;2023-04-03T13:02:54;3.15;;;1.60;;
58466;SDS011;44255;49.244;7.726;2023-04-03T13:05:20;2.28;;;1.23;;
58466;SDS011;44255;49.244;7.726;2023-04-03T13:07:52;3.40;;;1.38;;
58466;SDS011;44255;49.244;7.726;2023-04-03T13:10:23;3.03;;;1.65;;
58466;SDS011;44255;49.244;7.726;2023-04-03T13:12:49;2.00;;;1.07;;
58466;SDS011;44255;49.244;7.726;2023-04-03T13:15:29;6.60;;;2.20;;
58466;SDS011;44255;49.244;7.726;2023-04-03T13:18:04;4.55;;;2.90;;
58466;SDS011;44255;49.244;7.726;2023-04-03T13:20:31;6.53;;;1.98;;
58466;SDS011;44255;49.244;7.726;2023-04-03T13:25:31;3.88;;;2.33;;
58466;SDS011;44255;49.244;7.726;2023-04-03T13:27:59;5.95;;;2.13;;
58466;SDS011;44255;49.244;7.726;2023-04-03T13:30:29;5.90;;;2.30;;
58466;SDS011;44255;49.244;7.726;2023-04-03T13:32:56;4.05;;;2.08;;
58466;SDS011;44255;49.244;7.726;2023-04-03T13:35:34;4.00;;;1.70;;
58466;SDS011;44255;49.244;7.726;2023-04-03T13:40:27;5.85;;;1.85;;
58466;SDS011;44255;49.244;7.726;2023-04-03T13:43:00;4.38;;;1.92;;
58466;SDS011;44255;49.244;7.726;2023-04-03T13:45:30;3.88;;;1.30;;
58466;SDS011;44255;49.244;7.726;2023-04-03T13:48:08;4.43;;;1.90;;
58466;SDS011;44255;49.244;7.726;2023-04-03T13:50:50;6.40;;;3.17;;
58466;SDS011;44255;49.244;7.726;2023-04-03T13:53:18;8.30;;;2.88;;
58466;SDS011;44255;49.244;7.726;2023-04-03T13:55:57;5.97;;;2.03;;
58466;SDS011;44255;49.244;7.726;2023-04-03T13:58:32;5.28;;;3.17;;
58466;SDS011;44255;49.244;7.726;2023-04-03T14:03:46;4.63;;;2.10;;
58466;SDS011;44255;49.244;7.726;2023-04-03T14:06:17;8.05;;;2.25;;
58466;SDS011;44255;49.244;7.726;2023-04-03T14:08:43;6.00;;;2.43;;
58466;SDS011;44255;49.244;7.726;2023-04-03T14:11:20;4.45;;;1.77;;
58466;SDS011;44255;49.244;7.726;2023-04-03T14:13:52;2.97;;;1.40;;
58466;SDS011;44255;49.244;7.726;2023-04-03T14:16:19;4.20;;;2.15;;
58466;SDS011;44255;49.244;7.726;2023-04-03T14:18:47;5.22;;;1.60;;
58466;SDS011;44255;49.244;7.726;2023-04-03T14:21:15;4.25;;;1.98;;
58466;SDS011;44255;49.244;7.726;2023-04-03T14:23:42;4.07;;;1.88;;
58466;SDS011;44255;49.244;7.726;2023-04-03T14:26:09;2.15;;;1.27;;
58466;SDS011;44255;49.244;7.726;2023-04-03T14:28:37;4.53;;;1.73;;
58466;SDS011;44255;49.244;7.726;2023-04-03T14:31:03;5.10;;;1.80;;
58466;SDS011;44255;49.244;7.726;2023-04-03T14:33:30;4.13;;;1.98;;
58466;SDS011;44255;49.244;7.726;2023-04-03T14:35:59;5.00;;;2.15;;
58466;SDS011;44255;49.244;7.726;2023-04-03T14:38:26;4.18;;;1.45;;
58466;SDS011;44255;49.244;7.726;2023-04-03T14:40:53;3.80;;;1.70;;
58466;SDS011;44255;49.244;7.726;2023-04-03T14:43:20;4.55;;;2.88;;
58466;SDS011;44255;49.244;7.726;2023-04-03T14:45:46;4.57;;;1.58;;
58466;SDS011;44255;49.244;7.726;2023-04-03T14:50:44;4.68;;;2.88;;
58466;SDS011;44255;49.244;7.726;2023-04-03T14:53:10;2.65;;;1.60;;
58466;SDS011;44255;49.244;7.726;2023-04-03T14:55:37;3.42;;;2.25;;
58466;SDS011;44255;49.244;7.726;2023-04-03T14:58:03;5.45;;;2.17;;
58466;SDS011;44255;49.244;7.726;2023-04-03T15:00:28;3.90;;;2.00;;
58466;SDS011;44255;49.244;7.726;2023-04-03T15:02:53;4.20;;;1.70;;
58466;SDS011;44255;49.244;7.726;2023-04-03T15:05:18;4.53;;;2.23;;
58466;SDS011;44255;49.244;7.726;2023-04-03T15:07:46;4.00;;;2.00;;
58466;SDS011;44255;49.244;7.726;2023-04-03T15:12:42;3.05;;;1.58;;
58466;SDS011;44255;49.244;7.726;2023-04-03T15:15:08;3.30;;;1.95;;
58466;SDS011;44255;49.244;7.726;2023-04-03T15:17:34;3.65;;;1.85;;
58466;SDS011;44255;49.244;7.726;2023-04-03T15:20:01;3.13;;;1.70;;
58466;SDS011;44255;49.244;7.726;2023-04-03T15:24:52;3.80;;;1.80;;
58466;SDS011;44255;49.244;7.726;2023-04-03T15:27:17;2.33;;;1.50;;
58466;SDS011;44255;49.244;7.726;2023-04-03T15:29:43;7.00;;;1.63;;
58466;SDS011;44255;49.244;7.726;2023-04-03T15:32:09;3.38;;;1.48;;
58466;SDS011;44255;49.244;7.726;2023-04-03T15:34:35;2.47;;;1.50;;
58466;SDS011;44255;49.244;7.726;2023-04-03T15:37:01;4.15;;;1.70;;
58466;SDS011;44255;49.244;7.726;2023-04-03T15:39:26;4.10;;;1.97;;
58466;SDS011;44255;49.244;7.726;2023-04-03T15:41:52;3.70;;;2.35;;
58466;SDS011;44255;49.244;7.726;2023-04-03T15:44:18;4.55;;;1.90;;
58466;SDS011;44255;49.244;7.726;2023-04-03T15:46:45;3.25;;;1.70;;
58466;SDS011;44255;49.244;7.726;2023-04-03T15:49:12;3.00;;;1.70;;
58466;SDS011;44255;49.244;7.726;2023-04-03T15:51:38;3.70;;;1.63;;
58466;SDS011;44255;49.244;7.726;2023-04-03T15:54:03;3.60;;;2.30;;
58466;SDS011;44255;49.244;7.726;2023-04-03T15:56:28;3.03;;;2.07;;
58466;SDS011;44255;49.244;7.726;2023-04-03T15:58:54;2.80;;;1.70;;
58466;SDS011;44255;49.244;7.726;2023-04-03T16:01:19;1.83;;;1.40;;
58466;SDS011;44255;49.244;7.726;2023-04-03T16:03:44;4.07;;;1.70;;
58466;SDS011;44255;49.244;7.726;2023-04-03T16:06:11;5.03;;;1.73;;
58466;SDS011;44255;49.244;7.726;2023-04-03T16:08:37;3.20;;;1.55;;
58466;SDS011;44255;49.244;7.726;2023-04-03T16:11:03;3.20;;;1.70;;
58466;SDS011;44255;49.244;7.726;2023-04-03T16:13:28;2.55;;;1.70;;
58466;SDS011;44255;49.244;7.726;2023-04-03T16:15:54;4.20;;;1.80;;
58466;SDS011;44255;49.244;7.726;2023-04-03T16:18:19;2.80;;;2.10;;
58466;SDS011;44255;49.244;7.726;2023-04-03T16:20:45;6.60;;;3.37;;
58466;SDS011;44255;49.244;7.726;2023-04-03T16:23:10;3.43;;;2.27;;
58466;SDS011;44255;49.244;7.726;2023-04-03T16:25:36;5.32;;;2.30;;
58466;SDS011;44255;49.244;7.726;2023-04-03T16:28:01;4.90;;;2.50;;
58466;SDS011;44255;49.244;7.726;2023-04-03T16:30:28;4.78;;;2.20;;
58466;SDS011;44255;49.244;7.726;2023-04-03T16:32:53;5.65;;;3.22;;
58466;SDS011;44255;49.244;7.726;2023-04-03T16:35:20;6.10;;;3.00;;
58466;SDS011;44255;49.244;7.726;2023-04-03T16:37:45;5.95;;;2.67;;
58466;SDS011;44255;49.244;7.726;2023-04-03T16:40:11;6.57;;;2.60;;
58466;SDS011;44255;49.244;7.726;2023-04-03T16:42:37;5.88;;;2.63;;
58466;SDS011;44255;49.244;7.726;2023-04-03T16:45:04;5.45;;;2.58;;
58466;SDS011;44255;49.244;7.726;2023-04-03T16:47:31;4.63;;;2.40;;
58466;SDS011;44255;49.244;7.726;2023-04-03T16:49:56;2.67;;;1.80;;
58466;SDS011;44255;49.244;7.726;2023-04-03T16:52:21;3.93;;;2.17;;
58466;SDS011;44255;49.244;7.726;2023-04-03T16:54:47;3.10;;;1.47;;
58466;SDS011;44255;49.244;7.726;2023-04-03T16:57:12;2.93;;;1.90;;
58466;SDS011;44255;49.244;7.726;2023-04-03T16:59:37;3.50;;;1.73;;
58466;SDS011;44255;49.244;7.726;2023-04-03T17:02:02;3.90;;;2.23;;
58466;SDS011;44255;49.244;7.726;2023-04-03T17:04:28;2.80;;;1.50;;
58466;SDS011;44255;49.244;7.726;2023-04-03T17:06:53;3.67;;;2.10;;
58466;SDS011;44255;49.244;7.726;2023-04-03T17:11:45;4.15;;;2.40;;
58466;SDS011;44255;49.244;7.726;2023-04-03T17:14:11;4.38;;;2.25;;
58466;SDS011;44255;49.244;7.726;2023-04-03T17:16:36;5.70;;;2.73;;
58466;SDS011;44255;49.244;7.726;2023-04-03T17:19:03;3.78;;;2.47;;
58466;SDS011;44255;49.244;7.726;2023-04-03T17:21:28;6.32;;;3.00;;
58466;SDS011;44255;49.244;7.726;2023-04-03T17:23:57;6.43;;;3.42;;
58466;SDS011;44255;49.244;7.726;2023-04-03T17:26:25;5.25;;;3.40;;
58466;SDS011;44255;49.244;7.726;2023-04-03T17:28:51;3.90;;;2.15;;
58466;SDS011;44255;49.244;7.726;2023-04-03T17:31:17;3.45;;;1.90;;
58466;SDS011;44255;49.244;7.726;2023-04-03T17:33:43;3.80;;;2.45;;
58466;SDS011;44255;49.244;7.726;2023-04-03T17:36:08;5.45;;;3.03;;
58466;SDS011;44255;49.244;7.726;2023-04-03T17:38:34;4.10;;;2.47;;
58466;SDS011;44255;49.244;7.726;2023-04-03T17:41:00;4.00;;;2.20;;
58466;SDS011;44255;49.244;7.726;2023-04-03T17:43:27;3.45;;;1.85;;
58466;SDS011;44255;49.244;7.726;2023-04-03T17:45:53;4.22;;;2.33;;
58466;SDS011;44255;49.244;7.726;2023-04-03T17:48:27;5.03;;;2.30;;
58466;SDS011;44255;49.244;7.726;2023-04-03T17:50:52;3.50;;;2.38;;
58466;SDS011;44255;49.244;7.726;2023-04-03T17:53:17;4.23;;;2.50;;
58466;SDS011;44255;49.244;7.726;2023-04-03T17:55:43;6.57;;;3.13;;
58466;SDS011;44255;49.244;7.726;2023-04-03T17:58:08;5.33;;;2.63;;
58466;SDS011;44255;49.244;7.726;2023-04-03T18:00:33;3.75;;;2.30;;
58466;SDS011;44255;49.244;7.726;2023-04-03T18:03:00;4.22;;;2.28;;
58466;SDS011;44255;49.244;7.726;2023-04-03T18:05:26;4.20;;;1.80;;
58466;SDS011;44255;49.244;7.726;2023-04-03T18:07:53;5.90;;;3.03;;
58466;SDS011;44255;49.244;7.726;2023-04-03T18:10:18;33.83;;;16.30;;
58466;SDS011;44255;49.244;7.726;2023-04-03T18:12:44;39.15;;;19.33;;
58466;SDS011;44255;49.244;7.726;2023-04-03T18:15:09;43.35;;;20.58;;
58466;SDS011;44255;49.244;7.726;2023-04-03T18:17:35;48.65;;;24.33;;
58466;SDS011;44255;49.244;7.726;2023-04-03T18:20:01;45.57;;;21.17;;
58466;SDS011;44255;49.244;7.726;2023-04-03T18:22:26;32.23;;;15.87;;
58466;SDS011;44255;49.244;7.726;2023-04-03T18:24:52;34.25;;;18.67;;
58466;SDS011;44255;49.244;7.726;2023-04-03T18:27:19;31.92;;;19.00;;
58466;SDS011;44255;49.244;7.726;2023-04-03T18:29:49;24.63;;;13.80;;
58466;SDS011;44255;49.244;7.726;2023-04-03T18:32:18;20.40;;;10.90;;
58466;SDS011;44255;49.244;7.726;2023-04-03T18:34:44;18.40;;;10.45;;
58466;SDS011;44255;49.244;7.726;2023-04-03T18:37:09;18.83;;;10.53;;
58466;SDS011;44255;49.244;7.726;2023-04-03T18:39:35;17.57;;;10.60;;
58466;SDS011;44255;49.244;7.726;2023-04-03T18:42:07;17.35;;;9.20;;
58466;SDS011;44255;49.244;7.726;2023-04-03T18:44:40;18.27;;;8.25;;
58466;SDS011;44255;49.244;7.726;2023-04-03T18:47:07;18.08;;;10.25;;
58466;SDS011;44255;49.244;7.726;2023-04-03T18:49:33;14.15;;;7.25;;
58466;SDS011;44255;49.244;7.726;2023-04-03T18:52:00;10.02;;;5.60;;
58466;SDS011;44255;49.244;7.726;2023-04-03T18:54:25;6.60;;;3.65;;
58466;SDS011;44255;49.244;7.726;2023-04-03T18:56:50;13.70;;;7.23;;
58466;SDS011;44255;49.244;7.726;2023-04-03T18:59:16;13.43;;;8.53;;
58466;SDS011;44255;49.244;7.726;2023-04-03T19:01:41;13.67;;;7.47;;
58466;SDS011;44255;49.244;7.726;2023-04-03T19:04:06;9.32;;;6.25;;
58466;SDS011;44255;49.244;7.726;2023-04-03T19:06:35;9.40;;;5.90;;
58466;SDS011;44255;49.244;7.726;2023-04-03T19:09:02;13.95;;;8.32;;
58466;SDS011;44255;49.244;7.726;2023-04-03T19:11:29;13.27;;;8.68;;
58466;SDS011;44255;49.244;7.726;2023-04-03T19:13:55;13.63;;;8.20;;
58466;SDS011;44255;49.244;7.726;2023-04-03T19:16:21;15.15;;;6.72;;
58466;SDS011;44255;49.244;7.726;2023-04-03T19:18:46;10.37;;;5.80;;
58466;SDS011;44255;49.244;7.726;2023-04-03T19:21:11;11.83;;;6.77;;
58466;SDS011;44255;49.244;7.726;2023-04-03T19:23:36;9.13;;;5.63;;
58466;SDS011;44255;49.244;7.726;2023-04-03T19:26:03;15.63;;;7.38;;
58466;SDS011;44255;49.244;7.726;2023-04-03T19:28:30;14.35;;;7.30;;
58466;SDS011;44255;49.244;7.726;2023-04-03T19:30:56;13.50;;;6.37;;
58466;SDS011;44255;49.244;7.726;2023-04-03T19:33:22;14.40;;;6.72;;
58466;SDS011;44255;49.244;7.726;2023-04-03T19:35:48;10.90;;;5.68;;
58466;SDS011;44255;49.244;7.726;2023-04-03T19:38:13;11.23;;;5.97;;
58466;SDS011;44255;49.244;7.726;2023-04-03T19:40:38;10.38;;;5.65;;
58466;SDS011;44255;49.244;7.726;2023-04-03T19:43:08;9.32;;;4.20;;
58466;SDS011;44255;49.244;7.726;2023-04-03T19:45:35;6.68;;;4.18;;
58466;SDS011;44255;49.244;7.726;2023-04-03T19:48:00;8.10;;;3.65;;
58466;SDS011;44255;49.244;7.726;2023-04-03T19:50:25;9.73;;;4.33;;
58466;SDS011;44255;49.244;7.726;2023-04-03T19:52:51;12.27;;;4.53;;
58466;SDS011;44255;49.244;7.726;2023-04-03T19:55:16;7.70;;;4.63;;
58466;SDS011;44255;49.244;7.726;2023-04-03T19:57:41;8.10;;;3.70;;
58466;SDS011;44255;49.244;7.726;2023-04-03T20:00:07;6.60;;;3.80;;
58466;SDS011;44255;49.244;7.726;2023-04-03T20:02:32;10.55;;;4.85;;
58466;SDS011;44255;49.244;7.726;2023-04-03T20:04:58;10.47;;;4.40;;
58466;SDS011;44255;49.244;7.726;2023-04-03T20:07:23;11.07;;;4.20;;
58466;SDS011;44255;49.244;7.726;2023-04-03T20:09:49;8.55;;;5.22;;
58466;SDS011;44255;49.244;7.726;2023-04-03T20:12:14;8.52;;;4.65;;
58466;SDS011;44255;49.244;7.726;2023-04-03T20:14:40;13.10;;;5.30;;
58466;SDS011;44255;49.244;7.726;2023-04-03T20:17:05;11.35;;;6.15;;
58466;SDS011;44255;49.244;7.726;2023-04-03T20:19:30;21.42;;;8.43;;
58466;SDS011;44255;49.244;7.726;2023-04-03T20:21:58;14.13;;;6.55;;
58466;SDS011;44255;49.244;7.726;2023-04-03T20:24:25;10.98;;;6.10;;
58466;SDS011;44255;49.244;7.726;2023-04-03T20:26:52;12.88;;;6.30;;
58466;SDS011;44255;49.244;7.726;2023-04-03T20:29:17;13.83;;;6.00;;
58466;SDS011;44255;49.244;7.726;2023-04-03T20:31:43;10.00;;;5.55;;
58466;SDS011;44255;49.244;7.726;2023-04-03T20:34:08;11.85;;;5.45;;
58466;SDS011;44255;49.244;7.726;2023-04-03T20:36:34;8.70;;;5.07;;
58466;SDS011;44255;49.244;7.726;2023-04-03T20:38:59;8.18;;;4.78;;
58466;SDS011;44255;49.244;7.726;2023-04-03T20:41:24;7.78;;;3.97;;
58466;SDS011;44255;49.244;7.726;2023-04-03T20:43:50;6.47;;;4.07;;
58466;SDS011;44255;49.244;7.726;2023-04-03T20:46:15;6.63;;;3.78;;
58466;SDS011;44255;49.244;7.726;2023-04-03T20:48:43;5.97;;;3.67;;
58466;SDS011;44255;49.244;7.726;2023-04-03T20:51:11;5.47;;;3.60;;
58466;SDS011;44255;49.244;7.726;2023-04-03T20:53:42;6.57;;;3.78;;
58466;SDS011;44255;49.244;7.726;2023-04-03T20:56:08;7.80;;;3.53;;
58466;SDS011;44255;49.244;7.726;2023-04-03T20:58:34;6.70;;;3.28;;
